Time;durP1;ratioP1;P1;durP2;ratioP2;P2;SDS_P1;SDS_P2;PMS_P1;PMS_P2;Temp;Humidity;BMP_temperature;BMP_pressure;BME280_temperature;BME280_humidity;BME280_pressure;Samples;Min_cycle;Max_cycle;Signal;HPM_P1;HPM_P2
2021/11/25 00:00:27;;;;;;;32.25;18.65;;;6.40;72.80;;;;;;5012981;28;20058;-66
2021/11/25 00:02:53;;;;;;;35.42;18.58;;;6.40;72.90;;;;;;5002961;28;20041;-66
2021/11/25 00:05:18;;;;;;;35.53;19.48;;;6.40;73.00;;;;;;5012779;28;20481;-66
2021/11/25 00:07:44;;;;;;;36.85;19.83;;;6.40;73.00;;;;;;5012955;28;20117;-66
2021/11/25 00:10:11;;;;;;;35.00;19.75;;;6.50;73.10;;;;;;5013804;28;20026;-66
2021/11/25 00:12:37;;;;;;;33.92;20.10;;;6.50;73.00;;;;;;5012339;28;20025;-66
2021/11/25 00:15:05;;;;;;;36.25;20.83;;;6.50;73.00;;;;;;5008285;28;20035;-66
2021/11/25 00:17:31;;;;;;;34.80;19.90;;;6.50;73.00;;;;;;5001717;28;20119;-66
2021/11/25 00:19:56;;;;;;;37.13;19.90;;;6.50;73.00;;;;;;5012504;28;20607;-66
2021/11/25 00:22:22;;;;;;;35.55;21.48;;;6.50;72.90;;;;;;4998787;28;20032;-66
2021/11/25 00:24:48;;;;;;;36.22;20.65;;;6.50;72.90;;;;;;5008586;28;20029;-66
2021/11/25 00:27:14;;;;;;;39.88;20.92;;;6.50;73.00;;;;;;5006647;28;20041;-66
2021/11/25 00:29:39;;;;;;;34.85;19.35;;;6.40;73.10;;;;;;5001185;28;20555;-66
2021/11/25 00:32:06;;;;;;;34.78;20.05;;;6.40;73.10;;;;;;5007569;28;20484;-66
2021/11/25 00:34:32;;;;;;;37.83;21.35;;;6.50;73.20;;;;;;5012606;28;20048;-66
2021/11/25 00:36:57;;;;;;;32.60;19.60;;;6.40;73.20;;;;;;5001432;28;20101;-66
2021/11/25 00:39:23;;;;;;;35.00;19.98;;;6.40;73.30;;;;;;5000718;28;20100;-66
2021/11/25 00:41:50;;;;;;;39.80;21.90;;;6.40;73.40;;;;;;5002369;28;20500;-66
2021/11/25 00:44:17;;;;;;;33.35;19.20;;;6.40;73.50;;;;;;5008342;28;20419;-66
2021/11/25 00:46:42;;;;;;;36.30;20.38;;;6.40;73.40;;;;;;5011929;28;20026;-66
2021/11/25 00:49:09;;;;;;;32.78;18.80;;;6.50;73.50;;;;;;5010742;28;20037;-66
2021/11/25 00:51:36;;;;;;;30.63;17.38;;;6.40;73.50;;;;;;4998539;28;20392;-66
2021/11/25 00:54:02;;;;;;;29.50;17.15;;;6.40;73.60;;;;;;5011606;28;20147;-66
2021/11/25 00:56:27;;;;;;;29.33;16.60;;;6.50;73.70;;;;;;5011721;28;20496;-66
2021/11/25 00:58:53;;;;;;;29.05;16.58;;;6.50;73.60;;;;;;5007265;28;20033;-66
2021/11/25 01:01:19;;;;;;;29.27;16.33;;;6.50;73.60;;;;;;5012587;28;20390;-65
2021/11/25 01:03:45;;;;;;;29.92;16.58;;;6.50;73.70;;;;;;5011954;28;20405;-66
2021/11/25 01:06:11;;;;;;;27.02;15.13;;;6.50;73.80;;;;;;5010402;28;20508;-65
2021/11/25 01:08:37;;;;;;;25.55;14.00;;;6.50;73.90;;;;;;4999513;28;20054;-66
2021/11/25 01:11:04;;;;;;;25.40;14.23;;;6.60;74.00;;;;;;4996567;28;20111;-66
2021/11/25 01:13:30;;;;;;;23.13;13.60;;;6.60;74.00;;;;;;4997304;28;20185;-66
2021/11/25 01:15:56;;;;;;;23.48;13.85;;;6.60;74.00;;;;;;5008162;28;20497;-66
2021/11/25 01:18:22;;;;;;;23.83;13.52;;;6.60;73.80;;;;;;5001785;28;20034;-66
2021/11/25 01:20:49;;;;;;;25.20;13.90;;;6.60;73.80;;;;;;5008463;28;20093;-66
2021/11/25 01:23:19;;;;;;;25.67;13.43;;;6.70;73.90;;;;;;4998005;28;20062;-66
2021/11/25 01:25:47;;;;;;;23.42;13.35;;;6.70;74.00;;;;;;5004235;28;20042;-66
2021/11/25 01:28:14;;;;;;;22.90;13.20;;;6.70;74.00;;;;;;5006951;28;20034;-66
2021/11/25 01:30:42;;;;;;;23.77;13.35;;;6.70;73.90;;;;;;5002534;28;20493;-66
2021/11/25 01:33:08;;;;;;;24.10;13.35;;;6.70;73.90;;;;;;4999499;28;20042;-66
2021/11/25 01:35:35;;;;;;;24.50;13.32;;;6.60;73.80;;;;;;5000245;28;20148;-65
2021/11/25 01:38:02;;;;;;;26.88;13.20;;;6.50;73.80;;;;;;4996053;28;20038;-66
2021/11/25 01:40:28;;;;;;;26.13;13.68;;;6.30;73.70;;;;;;5002736;28;20038;-66
2021/11/25 01:42:53;;;;;;;21.92;13.15;;;6.20;74.00;;;;;;4997365;28;20050;-66
2021/11/25 01:45:24;;;;;;;21.45;11.52;;;6.10;74.00;;;;;;5000720;28;20030;-66
2021/11/25 01:47:50;;;;;;;25.27;12.80;;;5.90;74.80;;;;;;4996344;28;20038;-66
2021/11/25 01:50:17;;;;;;;23.63;12.50;;;5.80;74.00;;;;;;5004524;28;20040;-66
2021/11/25 01:52:44;;;;;;;22.33;11.80;;;5.70;74.00;;;;;;5005308;28;20042;-66
2021/11/25 01:55:12;;;;;;;23.50;12.68;;;5.60;74.30;;;;;;4996726;28;20038;-65
2021/11/25 01:57:39;;;;;;;25.13;12.30;;;5.50;74.50;;;;;;4993399;28;20085;-66
2021/11/25 02:00:10;;;;;;;21.38;11.82;;;5.40;74.50;;;;;;4999903;28;20027;-66
2021/11/25 02:02:36;;;;;;;26.25;12.85;;;5.30;74.50;;;;;;4997702;28;20018;-66
2021/11/25 02:05:02;;;;;;;22.77;12.15;;;5.20;74.70;;;;;;4995052;28;20523;-66
2021/11/25 02:07:28;;;;;;;23.52;12.98;;;5.10;74.90;;;;;;4996147;28;20404;-65
2021/11/25 02:09:54;;;;;;;19.27;11.82;;;5.00;75.00;;;;;;5008420;28;20029;-66
2021/11/25 02:12:20;;;;;;;19.63;11.48;;;5.00;75.20;;;;;;5005630;28;20034;-65
2021/11/25 02:14:47;;;;;;;22.10;12.32;;;5.00;75.10;;;;;;5009400;28;20058;-66
2021/11/25 02:17:13;;;;;;;19.52;11.10;;;5.00;75.20;;;;;;4998886;28;20026;-66
2021/11/25 02:19:42;;;;;;;21.60;11.98;;;5.00;75.30;;;;;;4994408;28;20058;-66
2021/11/25 02:22:08;;;;;;;19.05;10.68;;;5.00;75.10;;;;;;5008465;28;20049;-66
2021/11/25 02:24:34;;;;;;;17.50;10.52;;;5.00;74.90;;;;;;5010251;28;20481;-66
2021/11/25 02:26:59;;;;;;;20.50;10.98;;;5.00;74.80;;;;;;5010372;28;20021;-66
2021/11/25 02:29:25;;;;;;;20.40;10.60;;;5.00;74.60;;;;;;5010551;28;20161;-66
2021/11/25 02:31:51;;;;;;;19.23;10.95;;;4.90;74.50;;;;;;5007161;28;20026;-66
2021/11/25 02:34:17;;;;;;;20.08;10.75;;;4.90;74.70;;;;;;5013947;28;20044;-66
2021/11/25 02:36:43;;;;;;;19.88;11.07;;;4.90;74.90;;;;;;5009610;28;20037;-66
2021/11/25 02:39:09;;;;;;;24.77;12.23;;;4.90;75.10;;;;;;5009325;28;20022;-66
2021/11/25 02:41:34;;;;;;;21.27;11.82;;;5.00;75.30;;;;;;5007384;28;20069;-66
2021/11/25 02:44:00;;;;;;;22.38;12.05;;;5.00;75.40;;;;;;5009721;28;20026;-66
2021/11/25 02:46:26;;;;;;;21.67;12.07;;;5.10;75.30;;;;;;5007001;28;20034;-66
2021/11/25 02:48:54;;;;;;;22.50;11.93;;;5.10;75.20;;;;;;5011370;28;20039;-66
2021/11/25 02:51:24;;;;;;;22.05;12.05;;;5.20;76.30;;;;;;5009717;28;20053;-66
2021/11/25 02:53:51;;;;;;;23.42;12.35;;;5.20;75.30;;;;;;5009008;28;20046;-66
2021/11/25 02:56:21;;;;;;;20.55;11.73;;;5.30;75.20;;;;;;4996548;28;20407;-65
2021/11/25 02:58:49;;;;;;;20.08;11.95;;;5.30;75.30;;;;;;5009638;28;20061;-66
2021/11/25 03:01:14;;;;;;;20.42;12.15;;;5.40;75.30;;;;;;5011094;28;20164;-66
2021/11/25 03:03:40;;;;;;;21.20;11.52;;;5.40;75.30;;;;;;5012220;28;20104;-66
2021/11/25 03:06:06;;;;;;;20.15;11.38;;;5.40;75.20;;;;;;5003252;28;20026;-66
2021/11/25 03:08:32;;;;;;;21.77;11.77;;;5.50;75.30;;;;;;5009884;28;20026;-66
2021/11/25 03:11:10;;;;;;;21.92;12.02;;;5.50;75.20;;;;;;4997470;28;20022;-66
2021/11/25 03:13:38;;;;;;;19.88;11.80;;;5.60;75.20;;;;;;5010734;28;20049;-66
2021/11/25 03:16:05;;;;;;;23.15;12.85;;;5.60;75.20;;;;;;5014065;28;20026;-66
2021/11/25 03:18:31;;;;;;;20.88;12.00;;;5.60;75.20;;;;;;5013761;28;20036;-66
2021/11/25 03:20:59;;;;;;;21.08;11.75;;;5.60;75.20;;;;;;5013625;28;20030;-66
2021/11/25 03:23:31;;;;;;;20.98;11.23;;;5.60;75.20;;;;;;5013593;28;20018;-66
2021/11/25 03:26:07;;;;;;;20.08;11.27;;;5.60;75.20;;;;;;5013134;28;20657;-66
2021/11/25 03:28:43;;;;;;;20.73;11.75;;;5.70;75.30;;;;;;5010436;28;20026;-66
2021/11/25 03:31:26;;;;;;;21.83;11.65;;;5.70;75.40;;;;;;5012755;28;20057;-66
2021/11/25 03:33:58;;;;;;;21.67;12.20;;;5.70;75.50;;;;;;5012920;28;20121;-66
2021/11/25 03:36:31;;;;;;;20.77;11.73;;;5.70;75.60;;;;;;5013404;28;20025;-66
2021/11/25 03:39:01;;;;;;;25.27;12.52;;;5.80;75.60;;;;;;5013120;28;20036;-66
2021/11/25 03:41:30;;;;;;;23.50;11.70;;;5.80;75.70;;;;;;5012511;28;20520;-66
2021/11/25 03:43:58;;;;;;;22.88;11.60;;;5.90;75.70;;;;;;5013418;28;20114;-66
2021/11/25 03:46:30;;;;;;;20.40;11.32;;;5.90;75.80;;;;;;5014484;28;20097;-66
2021/11/25 03:49:00;;;;;;;24.00;12.18;;;5.90;75.70;;;;;;5012915;28;20057;-66
2021/11/25 03:51:32;;;;;;;22.60;12.43;;;5.90;75.80;;;;;;5013067;28;20033;-66
2021/11/25 03:54:02;;;;;;;23.17;12.27;;;6.00;75.90;;;;;;5013475;28;20120;-66
2021/11/25 03:56:35;;;;;;;21.63;11.73;;;6.00;75.90;;;;;;5013128;28;20114;-66
2021/11/25 03:59:01;;;;;;;22.55;12.77;;;6.00;75.90;;;;;;4997637;28;20034;-66
2021/11/25 04:01:27;;;;;;;21.17;12.15;;;6.10;76.00;;;;;;5010234;28;20024;-67
2021/11/25 04:03:55;;;;;;;24.90;13.43;;;6.10;76.00;;;;;;5012725;28;20038;-66
2021/11/25 04:06:21;;;;;;;22.33;12.98;;;6.10;75.90;;;;;;5012878;28;20117;-66
2021/11/25 04:08:47;;;;;;;24.27;12.63;;;6.10;75.90;;;;;;5012759;28;20112;-66
2021/11/25 04:11:12;;;;;;;23.17;12.52;;;6.10;76.00;;;;;;5008567;28;20045;-66
2021/11/25 04:13:38;;;;;;;22.67;13.20;;;6.10;76.00;;;;;;5012760;28;20121;-66
2021/11/25 04:16:04;;;;;;;22.98;12.30;;;6.10;76.00;;;;;;5013679;28;20112;-66
2021/11/25 04:18:30;;;;;;;21.77;11.95;;;6.20;76.10;;;;;;5012522;28;20018;-66
2021/11/25 04:20:56;;;;;;;20.23;11.70;;;6.10;76.00;;;;;;5011672;28;20081;-66
2021/11/25 04:23:22;;;;;;;23.10;12.43;;;6.20;76.10;;;;;;5013126;28;20476;-66
2021/11/25 04:25:47;;;;;;;23.15;12.95;;;6.20;76.10;;;;;;5012324;28;20524;-66
2021/11/25 04:28:13;;;;;;;23.38;12.93;;;6.20;76.20;;;;;;5013723;28;20516;-66
2021/11/25 04:35:50;;;;;;;23.13;13.00;;;6.30;76.40;;;;;;5008409;28;20781;-66
2021/11/25 04:38:19;;;;;;;27.33;13.88;;;6.30;76.40;;;;;;5016231;28;20030;-66
2021/11/25 04:40:59;;;;;;;26.58;13.57;;;6.30;76.40;;;;;;5003339;28;20057;-66
2021/11/25 04:43:26;;;;;;;29.13;14.05;;;6.30;76.50;;;;;;4997992;28;20053;-66
2021/11/25 04:45:52;;;;;;;28.80;14.88;;;6.40;76.30;;;;;;5000113;28;20517;-66
2021/11/25 04:48:20;;;;;;;26.02;14.65;;;6.40;76.20;;;;;;5004199;28;20488;-66
2021/11/25 04:50:46;;;;;;;27.48;15.23;;;6.40;76.30;;;;;;5002641;28;20485;-66
2021/11/25 04:53:13;;;;;;;30.35;15.23;;;6.40;76.30;;;;;;5011876;28;20045;-66
2021/11/25 04:55:40;;;;;;;29.48;15.45;;;6.50;76.40;;;;;;5020876;28;20051;-66
2021/11/25 04:58:06;;;;;;;26.15;14.15;;;6.40;76.20;;;;;;5015179;28;20021;-66
2021/11/25 05:00:32;;;;;;;24.38;14.15;;;6.40;76.20;;;;;;5014686;28;20053;-66
2021/11/25 05:02:58;;;;;;;28.60;15.65;;;6.50;76.40;;;;;;5019502;28;20397;-66
2021/11/25 05:05:24;;;;;;;29.13;15.82;;;6.50;76.50;;;;;;5012188;28;20026;-66
2021/11/25 05:07:50;;;;;;;28.20;15.73;;;6.50;76.60;;;;;;5011871;28;20033;-66
2021/11/25 05:10:16;;;;;;;30.20;15.68;;;6.50;76.50;;;;;;4998155;28;20034;-66
2021/11/25 05:12:42;;;;;;;29.85;15.80;;;6.50;76.60;;;;;;5004458;28;20034;-67
2021/11/25 05:15:11;;;;;;;29.02;15.70;;;6.50;76.70;;;;;;5006801;28;20048;-67
2021/11/25 05:17:38;;;;;;;29.33;15.88;;;6.60;76.70;;;;;;5001590;28;20100;-66
2021/11/25 05:20:06;;;;;;;28.40;15.18;;;6.60;76.70;;;;;;5011626;28;20117;-66
2021/11/25 05:22:32;;;;;;;31.48;16.92;;;6.50;77.20;;;;;;5003530;28;20069;-66
2021/11/25 05:24:57;;;;;;;31.95;16.48;;;6.50;77.40;;;;;;5000572;28;20066;-66
2021/11/25 05:27:23;;;;;;;31.27;17.38;;;6.50;77.60;;;;;;5006971;28;20026;-66
2021/11/25 05:29:49;;;;;;;33.40;18.00;;;6.50;77.70;;;;;;5002083;28;20038;-66
2021/11/25 05:32:16;;;;;;;34.22;17.08;;;6.50;77.60;;;;;;5011152;28;20037;-66
2021/11/25 05:34:45;;;;;;;29.48;16.65;;;6.50;77.80;;;;;;4993148;28;20089;-66
2021/11/25 05:37:12;;;;;;;37.55;18.10;;;6.50;77.90;;;;;;5004226;28;20034;-66
2021/11/25 05:39:38;;;;;;;33.08;17.65;;;6.50;78.00;;;;;;5010912;28;20057;-66
2021/11/25 05:42:04;;;;;;;34.35;17.80;;;6.50;77.90;;;;;;5007041;28;20054;-66
2021/11/25 05:44:29;;;;;;;34.83;18.27;;;6.60;78.40;;;;;;5000058;28;20036;-66
2021/11/25 05:46:55;;;;;;;33.20;17.88;;;6.60;78.40;;;;;;5011252;28;20030;-65
2021/11/25 05:49:21;;;;;;;32.58;18.25;;;6.60;78.40;;;;;;5012254;28;20101;-66
2021/11/25 05:51:47;;;;;;;30.95;17.50;;;6.60;78.40;;;;;;5003207;28;20089;-66
2021/11/25 05:54:12;;;;;;;37.00;19.38;;;6.60;78.60;;;;;;5003019;28;20038;-65
2021/11/25 05:56:38;;;;;;;32.00;17.70;;;6.60;78.80;;;;;;4983082;28;20124;-67
2021/11/25 05:59:04;;;;;;;33.05;18.55;;;6.60;78.80;;;;;;5007888;28;20026;-67
2021/11/25 06:01:30;;;;;;;36.45;19.05;;;6.60;79.00;;;;;;5012214;28;20028;-66
2021/11/25 06:03:56;;;;;;;36.03;18.33;;;6.60;79.10;;;;;;5000533;28;20405;-67
2021/11/25 06:06:22;;;;;;;35.35;19.10;;;6.60;79.10;;;;;;4997727;28;20030;-65
2021/11/25 06:08:49;;;;;;;33.10;17.80;;;6.60;79.10;;;;;;4999536;28;20037;-66
2021/11/25 06:11:16;;;;;;;33.45;18.50;;;6.60;78.90;;;;;;4995759;28;20109;-66
2021/11/25 06:13:43;;;;;;;34.35;18.83;;;6.70;78.80;;;;;;5005342;28;20120;-66
2021/11/25 06:16:09;;;;;;;35.72;18.73;;;6.70;78.70;;;;;;5011371;28;20037;-66
2021/11/25 06:18:35;;;;;;;35.75;18.83;;;6.70;78.70;;;;;;5002411;28;20022;-66
2021/11/25 06:21:00;;;;;;;34.85;18.05;;;6.70;78.70;;;;;;5001194;28;20068;-66
2021/11/25 06:23:26;;;;;;;35.22;19.30;;;6.70;78.80;;;;;;5006758;28;20030;-66
2021/11/25 06:25:52;;;;;;;34.03;18.40;;;6.80;78.70;;;;;;5008555;28;20433;-67
2021/11/25 06:28:18;;;;;;;32.22;17.90;;;6.80;78.70;;;;;;4995723;28;20033;-66
2021/11/25 06:30:44;;;;;;;34.20;18.02;;;6.80;78.60;;;;;;5005930;28;20113;-66
2021/11/25 06:33:10;;;;;;;32.90;17.98;;;6.90;78.60;;;;;;5007418;28;20108;-66
2021/11/25 06:35:36;;;;;;;32.13;17.42;;;6.90;78.60;;;;;;5007426;28;20026;-66
2021/11/25 06:38:02;;;;;;;33.15;18.85;;;6.90;78.70;;;;;;5006120;28;20026;-66
2021/11/25 06:40:32;;;;;;;33.65;18.52;;;6.90;78.60;;;;;;5011300;28;20400;-66
2021/11/25 06:43:00;;;;;;;38.05;20.90;;;7.00;78.60;;;;;;5011891;28;20057;-66
2021/11/25 06:45:26;;;;;;;44.55;23.70;;;6.90;79.50;;;;;;5008117;28;20485;-66
2021/11/25 06:47:54;;;;;;;38.67;19.92;;;6.90;78.60;;;;;;5004544;28;20119;-66
2021/11/25 06:50:22;;;;;;;36.70;19.67;;;6.90;78.70;;;;;;4997723;28;20030;-66
2021/11/25 06:52:48;;;;;;;36.63;19.25;;;7.00;78.80;;;;;;5006661;28;20018;-67
2021/11/25 06:55:16;;;;;;;37.42;20.00;;;6.90;78.70;;;;;;5010638;28;20056;-67
2021/11/25 06:57:47;;;;;;;36.22;19.30;;;6.90;78.80;;;;;;5006431;28;20502;-67
2021/11/25 07:00:15;;;;;;;36.38;20.30;;;6.90;79.80;;;;;;5003095;28;20039;-66
2021/11/25 07:02:41;;;;;;;37.53;20.30;;;6.90;78.90;;;;;;4999691;28;20034;-67
2021/11/25 07:05:08;;;;;;;41.90;21.10;;;6.90;79.00;;;;;;5009901;28;20022;-67
2021/11/25 07:07:35;;;;;;;38.08;20.42;;;6.90;79.10;;;;;;5010284;28;20069;-67
2021/11/25 07:10:01;;;;;;;40.70;20.55;;;6.90;79.30;;;;;;5010643;28;20021;-67
2021/11/25 07:12:27;;;;;;;37.65;20.35;;;6.90;79.30;;;;;;5009459;28;20038;-67
2021/11/25 07:14:53;;;;;;;39.15;22.13;;;6.90;79.30;;;;;;5009660;28;20104;-66
2021/11/25 07:17:18;;;;;;;42.03;20.95;;;6.90;79.50;;;;;;5009904;28;20018;-67
2021/11/25 07:19:44;;;;;;;39.45;20.95;;;6.90;79.50;;;;;;5009598;28;20037;-67
2021/11/25 07:22:10;;;;;;;36.80;20.55;;;6.90;79.60;;;;;;5010867;28;20018;-67
2021/11/25 07:24:36;;;;;;;37.58;20.05;;;6.90;79.70;;;;;;5009695;28;20125;-67
2021/11/25 07:27:03;;;;;;;38.67;20.98;;;6.90;79.90;;;;;;5009763;28;20077;-67
2021/11/25 07:29:29;;;;;;;37.85;20.27;;;6.90;80.00;;;;;;5009569;28;20032;-67
2021/11/25 07:31:55;;;;;;;40.30;21.02;;;7.00;81.00;;;;;;5009651;28;20022;-67
2021/11/25 07:34:21;;;;;;;35.58;20.08;;;7.00;80.20;;;;;;5011033;28;20401;-67
2021/11/25 07:36:47;;;;;;;39.42;20.95;;;7.00;80.10;;;;;;5009423;28;20060;-67
2021/11/25 07:39:13;;;;;;;38.50;20.30;;;7.00;80.10;;;;;;5009706;28;20069;-66
2021/11/25 07:41:40;;;;;;;38.45;19.65;;;7.00;80.10;;;;;;5009060;28;20044;-67
2021/11/25 07:44:07;;;;;;;36.33;19.92;;;7.00;80.10;;;;;;5009850;28;20038;-67
2021/11/25 07:46:34;;;;;;;37.85;20.25;;;7.00;80.20;;;;;;5010150;28;20030;-67
2021/11/25 07:49:01;;;;;;;39.25;20.92;;;7.00;80.30;;;;;;5009814;28;20036;-66
2021/11/25 07:51:30;;;;;;;39.65;21.00;;;7.10;80.40;;;;;;5009186;28;20033;-67
2021/11/25 07:53:56;;;;;;;38.80;19.73;;;7.10;80.60;;;;;;5009270;28;20121;-67
2021/11/25 07:56:22;;;;;;;39.05;20.38;;;7.10;80.80;;;;;;5009993;28;20101;-67
2021/11/25 07:58:48;;;;;;;37.55;20.88;;;7.10;80.80;;;;;;5013040;28;20156;-67
2021/11/25 08:01:13;;;;;;;37.35;20.08;;;7.10;80.70;;;;;;5013613;28;20034;-66
2021/11/25 08:03:39;;;;;;;37.78;20.60;;;7.10;80.80;;;;;;5013332;28;20026;-67
2021/11/25 08:06:05;;;;;;;37.03;20.55;;;7.10;81.40;;;;;;5012905;28;20022;-67
2021/11/25 08:08:31;;;;;;;37.25;20.83;;;7.10;80.80;;;;;;5013007;28;20033;-67
2021/11/25 08:11:01;;;;;;;38.92;20.45;;;7.10;81.10;;;;;;5012493;28;20481;-67
2021/11/25 08:13:28;;;;;;;42.03;22.08;;;7.10;81.20;;;;;;5009581;28;20064;-67
2021/11/25 08:15:54;;;;;;;41.17;21.23;;;7.10;81.20;;;;;;5012559;28;20113;-66
2021/11/25 08:18:20;;;;;;;43.63;22.08;;;7.10;81.10;;;;;;5012785;28;20037;-67
2021/11/25 08:20:46;;;;;;;45.85;27.52;;;7.20;81.10;;;;;;5011847;28;20392;-67
2021/11/25 08:23:12;;;;;;;54.60;33.00;;;7.20;80.90;;;;;;5011545;28;20084;-67
2021/11/25 08:25:37;;;;;;;53.72;34.85;;;7.20;81.00;;;;;;4996906;28;20085;-66
2021/11/25 08:28:03;;;;;;;45.08;27.67;;;7.20;81.00;;;;;;5012978;28;20500;-67
2021/11/25 08:30:30;;;;;;;57.45;41.35;;;7.20;80.90;;;;;;5011855;28;20026;-67
2021/11/25 08:32:56;;;;;;;44.88;28.88;;;7.30;81.20;;;;;;5012312;28;20065;-67
2021/11/25 08:35:24;;;;;;;67.75;51.53;;;7.30;82.00;;;;;;5012610;28;20064;-67
2021/11/25 08:37:50;;;;;;;62.20;43.67;;;7.30;81.90;;;;;;5012539;28;20032;-67
2021/11/25 08:40:16;;;;;;;60.47;46.83;;;7.30;81.90;;;;;;5013222;28;20030;-66
2021/11/25 08:42:43;;;;;;;49.83;33.17;;;7.30;82.00;;;;;;5013635;28;20053;-67
2021/11/25 08:45:10;;;;;;;47.85;29.58;;;7.30;82.00;;;;;;5012271;28;20077;-67
2021/11/25 08:47:36;;;;;;;46.90;26.83;;;7.40;81.90;;;;;;5011987;28;20033;-67
2021/11/25 08:50:04;;;;;;;42.92;22.38;;;7.30;81.70;;;;;;5012363;28;20084;-67
2021/11/25 08:52:30;;;;;;;36.85;21.15;;;7.40;81.90;;;;;;5009109;28;20045;-67
2021/11/25 08:54:56;;;;;;;39.13;23.00;;;7.40;81.90;;;;;;5011842;28;20041;-67
2021/11/25 08:57:21;;;;;;;40.08;21.58;;;7.40;81.80;;;;;;5012247;28;20469;-67
2021/11/25 08:59:47;;;;;;;38.53;21.58;;;7.40;81.90;;;;;;5011450;28;20026;-67
2021/11/25 09:02:13;;;;;;;36.40;21.15;;;7.50;82.10;;;;;;5011931;28;20401;-67
2021/11/25 09:04:38;;;;;;;42.47;26.02;;;7.50;82.20;;;;;;5013226;28;20113;-67
2021/11/25 09:07:05;;;;;;;38.15;22.48;;;7.50;82.00;;;;;;5012874;28;20432;-66
2021/11/25 09:09:31;;;;;;;44.65;27.35;;;7.50;81.80;;;;;;5011669;28;20029;-67
2021/11/25 09:11:56;;;;;;;43.38;25.45;;;7.50;82.40;;;;;;5011585;28;20030;-67
2021/11/25 09:14:23;;;;;;;38.63;21.23;;;7.60;82.10;;;;;;5011459;28;20103;-67
2021/11/25 09:16:49;;;;;;;39.35;21.65;;;7.60;82.10;;;;;;5011857;28;20022;-67
2021/11/25 09:19:15;;;;;;;39.35;20.45;;;7.60;82.00;;;;;;5012842;28;20392;-67
2021/11/25 09:21:41;;;;;;;36.78;20.33;;;7.60;82.00;;;;;;5010867;28;20488;-67
2021/11/25 09:24:08;;;;;;;33.97;19.95;;;7.70;82.10;;;;;;5011794;28;20026;-67
2021/11/25 09:26:35;;;;;;;36.55;20.83;;;7.70;82.10;;;;;;5011516;28;20028;-67
2021/11/25 09:29:01;;;;;;;35.67;19.95;;;7.90;81.90;;;;;;5011182;28;20026;-67
2021/11/25 09:31:29;;;;;;;31.52;18.63;;;8.00;81.50;;;;;;5008247;28;20117;-67
2021/11/25 09:33:56;;;;;;;32.22;19.20;;;8.10;81.20;;;;;;5011258;28;20139;-67
2021/11/25 09:36:24;;;;;;;35.28;21.55;;;8.20;81.10;;;;;;5010881;28;20033;-67
2021/11/25 09:38:50;;;;;;;34.70;21.23;;;8.50;80.50;;;;;;5011357;28;20021;-67
2021/11/25 09:41:16;;;;;;;31.70;20.60;;;8.80;79.60;;;;;;5010734;28;20033;-67
2021/11/25 09:43:42;;;;;;;35.10;23.10;;;9.10;78.50;;;;;;5011335;28;20492;-67
2021/11/25 09:46:10;;;;;;;50.75;35.10;;;9.50;77.40;;;;;;5012193;28;20029;-67
2021/11/25 09:48:37;;;;;;;68.97;61.42;;;10.10;75.80;;;;;;5010843;28;20036;-67
2021/11/25 09:51:05;;;;;;;44.13;36.47;;;11.50;72.50;;;;;;5010815;28;20539;-67
2021/11/25 09:53:32;;;;;;;61.60;52.72;;;11.80;70.20;;;;;;5010738;28;20038;-66
2021/11/25 09:55:59;;;;;;;149.02;132.82;;;11.40;70.80;;;;;;5010716;28;20485;-67
2021/11/25 09:58:29;;;;;;;42.55;33.90;;;11.00;71.80;;;;;;5012228;28;20101;-67
2021/11/25 10:01:03;;;;;;;35.80;27.42;;;10.70;72.90;;;;;;5010667;28;20061;-67
2021/11/25 10:03:29;;;;;;;30.10;19.02;;;10.40;73.90;;;;;;5010600;28;20069;-67
2021/11/25 10:05:57;;;;;;;29.38;20.05;;;10.20;74.70;;;;;;5010716;28;20026;-67
2021/11/25 10:08:38;;;;;;;31.42;19.25;;;10.10;75.00;;;;;;5010835;28;20040;-67
2021/11/25 10:11:05;;;;;;;;;;;10.00;75.30;;;;;;4995886;28;20396;-67
2021/11/25 10:13:58;;;;;;;30.15;21.55;;;9.90;75.40;;;;;;5011298;28;19910;-67
2021/11/25 10:16:30;;;;;;;28.70;19.75;;;9.90;75.90;;;;;;4996437;28;20077;-67
2021/11/25 10:18:58;;;;;;;31.63;21.42;;;9.80;76.10;;;;;;5009778;28;20034;-67
2021/11/25 10:21:27;;;;;;;30.38;20.63;;;9.80;76.10;;;;;;5010109;28;20030;-67
2021/11/25 10:23:56;;;;;;;29.17;17.48;;;9.80;76.30;;;;;;5007196;28;20076;-67
2021/11/25 10:26:25;;;;;;;26.20;16.45;;;9.80;76.20;;;;;;5010411;28;20563;-67
2021/11/25 10:28:53;;;;;;;27.80;17.23;;;9.80;76.20;;;;;;5010426;28;20473;-67
2021/11/25 10:31:42;;;;;;;27.92;16.98;;;9.80;76.30;;;;;;5008574;28;20072;-67
2021/11/25 10:34:13;;;;;;;39.85;29.33;;;9.90;76.30;;;;;;5010508;28;20033;-67
2021/11/25 10:36:57;;;;;;;29.90;19.63;;;9.90;76.30;;;;;;5010272;28;20113;-67
2021/11/25 10:39:34;;;;;;;37.03;24.92;;;9.90;76.30;;;;;;5016525;28;20021;-67
2021/11/25 10:42:08;;;;;;;37.72;28.52;;;9.90;76.30;;;;;;5014750;28;20049;-67
2021/11/25 10:44:52;;;;;;;49.60;36.55;;;9.90;76.40;;;;;;5007920;28;20451;-67
2021/11/25 10:47:21;;;;;;;30.55;21.60;;;9.80;76.30;;;;;;4997019;28;20022;-67
2021/11/25 10:50:00;;;;;;;37.72;25.92;;;9.80;76.50;;;;;;5009777;28;20028;-67
2021/11/25 10:52:37;;;;;;;31.88;22.45;;;9.80;76.70;;;;;;5011172;28;20080;-67
2021/11/25 10:55:04;;;;;;;24.70;16.42;;;9.80;76.90;;;;;;4998558;28;20073;-67
2021/11/25 10:57:40;;;;;;;22.38;15.35;;;9.80;76.90;;;;;;5006250;28;20026;-66
2021/11/25 11:00:16;;;;;;;23.08;14.88;;;9.80;76.90;;;;;;5009661;28;20030;-67
2021/11/25 11:02:42;;;;;;;21.58;14.60;;;9.80;78.10;;;;;;5009701;28;20030;-67
2021/11/25 11:05:17;;;;;;;21.17;14.85;;;9.80;77.20;;;;;;5009862;28;20101;-67
2021/11/25 11:07:46;;;;;;;25.08;15.48;;;9.80;77.00;;;;;;5012745;28;20115;-67
2021/11/25 11:10:30;;;;;;;25.90;15.68;;;9.80;77.00;;;;;;4995505;28;20038;-68
2021/11/25 11:18:59;;;;;;;24.23;16.10;;;9.90;77.00;;;;;;4948824;28;20043;-67
2021/11/25 11:21:42;;;;;;;22.80;14.68;;;9.90;77.00;;;;;;4949204;29;20039;-67
2021/11/25 11:24:32;;;;;;;20.90;14.77;;;9.90;77.00;;;;;;4948987;29;20405;-67
2021/11/25 11:27:10;;;;;;;22.77;15.48;;;9.90;77.00;;;;;;4949016;29;20529;-67
2021/11/25 11:29:37;;;;;;;26.95;18.83;;;9.90;76.90;;;;;;4948748;29;20028;-66
2021/11/25 11:32:06;;;;;;;24.80;16.95;;;10.00;76.70;;;;;;4952253;28;20043;-67
2021/11/25 11:34:33;;;;;;;27.13;18.13;;;10.10;76.50;;;;;;4954047;29;20035;-67
2021/11/25 11:36:59;;;;;;;26.45;17.92;;;10.30;76.00;;;;;;4951131;29;20039;-67
2021/11/25 11:39:28;;;;;;;21.02;14.35;;;11.00;75.10;;;;;;4951801;29;20043;-67
2021/11/25 11:42:00;;;;;;;19.48;14.82;;;14.50;67.30;;;;;;4948094;28;20051;-67
2021/11/25 11:44:27;;;;;;;17.92;14.20;;;17.40;59.00;;;;;;4960198;28;20589;-67
2021/11/25 11:47:04;;;;;;;15.75;12.88;;;20.10;53.40;;;;;;4952635;28;20102;-68
2021/11/25 11:49:30;;;;;;;17.05;13.57;;;19.70;49.50;;;;;;4968100;28;20562;-67
2021/11/25 11:52:05;;;;;;;17.98;14.00;;;19.00;50.40;;;;;;5011295;28;20108;-68
2021/11/25 11:54:44;;;;;;;24.83;22.15;;;18.20;52.00;;;;;;5012977;28;20073;-67
2021/11/25 11:57:30;;;;;;;20.30;15.77;;;17.40;53.30;;;;;;5007029;28;20026;-68
2021/11/25 11:59:57;;;;;;;81.78;63.90;;;16.30;55.50;;;;;;5004531;28;20038;-67
2021/11/25 12:02:41;;;;;;;52.60;47.13;;;15.60;57.30;;;;;;5009905;28;20025;-67
2021/11/25 12:05:08;;;;;;;40.00;35.90;;;15.00;59.00;;;;;;5008155;28;20026;-67
2021/11/25 12:07:34;;;;;;;62.22;55.65;;;14.70;59.60;;;;;;5011938;28;20054;-67
2021/11/25 12:10:00;;;;;;;127.95;114.03;;;14.70;59.70;;;;;;5007028;28;20062;-67
2021/11/25 12:12:25;;;;;;;70.60;63.38;;;14.40;59.80;;;;;;5003283;28;20039;-67
2021/11/25 12:14:57;;;;;;;45.00;40.28;;;14.40;60.10;;;;;;5001117;28;20438;-67
2021/11/25 12:17:28;;;;;;;60.85;54.63;;;14.40;60.10;;;;;;5012556;28;20030;-67
2021/11/25 12:19:55;;;;;;;28.65;23.55;;;14.10;61.40;;;;;;5008070;28;20052;-67
2021/11/25 12:22:23;;;;;;;42.67;38.25;;;14.60;61.60;;;;;;4985917;28;20109;-68
2021/11/25 12:24:50;;;;;;;80.70;72.97;;;16.20;58.80;;;;;;5007676;28;20026;-67
2021/11/25 12:27:20;;;;;;;47.22;42.42;;;15.60;57.70;;;;;;5004506;28;20062;-68
2021/11/25 12:30:26;;;;;;;39.97;35.72;;;15.00;59.20;;;;;;5011259;28;20025;-67
2021/11/25 12:32:45;;;;;;;40.35;36.05;;;14.30;61.00;;;;;;5002045;28;20489;-67
2021/11/25 12:35:26;;;;;;;55.88;49.90;;;13.80;61.80;;;;;;5012233;28;20136;-67
2021/11/25 12:37:58;;;;;;;33.03;28.00;;;13.50;62.70;;;;;;5000401;28;20389;-67
2021/11/25 12:40:23;;;;;;;28.80;20.98;;;13.10;63.70;;;;;;4998575;28;20041;-67
2021/11/25 12:43:20;;;;;;;25.38;18.73;;;12.80;64.60;;;;;;5007012;28;20046;-67
2021/11/25 12:45:48;;;;;;;26.42;19.00;;;12.50;65.50;;;;;;4996452;28;20053;-67
2021/11/25 12:48:17;;;;;;;25.20;17.88;;;12.30;66.40;;;;;;5000778;28;20093;-67
2021/11/25 12:50:44;;;;;;;27.38;20.30;;;12.10;67.00;;;;;;5012122;28;20168;-67